sensor_id;sensor_type;location;lat;lon;timestamp;pressure;altitude;pressure_sealevel;temperature
11321;BMP180;5715;48.234;14.320;2024-02-14T00:01:30;99123.00;;;9.10
11321;BMP180;5715;48.234;14.320;2024-02-14T00:04:18;99135.00;;;9.10
11321;BMP180;5715;48.234;14.320;2024-02-14T00:07:06;99121.00;;;9.10
11321;BMP180;5715;48.234;14.320;2024-02-14T00:09:54;99128.00;;;9.00
11321;BMP180;5715;48.234;14.320;2024-02-14T00:12:41;99125.00;;;9.00
11321;BMP180;5715;48.234;14.320;2024-02-14T00:15:29;99126.00;;;9.00
11321;BMP180;5715;48.234;14.320;2024-02-14T00:18:17;99122.00;;;8.90
11321;BMP180;5715;48.234;14.320;2024-02-14T00:21:07;99120.00;;;8.90
11321;BMP180;5715;48.234;14.320;2024-02-14T00:23:54;99125.00;;;8.90
11321;BMP180;5715;48.234;14.320;2024-02-14T00:26:42;99125.00;;;8.90
11321;BMP180;5715;48.234;14.320;2024-02-14T00:29:29;99126.00;;;8.90
11321;BMP180;5715;48.234;14.320;2024-02-14T00:32:17;99126.00;;;8.90
11321;BMP180;5715;48.234;14.320;2024-02-14T00:35:05;99126.00;;;8.90
11321;BMP180;5715;48.234;14.320;2024-02-14T00:37:53;99138.00;;;8.90
11321;BMP180;5715;48.234;14.320;2024-02-14T00:40:41;99131.00;;;8.90
11321;BMP180;5715;48.234;14.320;2024-02-14T00:43:28;99129.00;;;8.90
11321;BMP180;5715;48.234;14.320;2024-02-14T00:46:17;99134.00;;;8.90
11321;BMP180;5715;48.234;14.320;2024-02-14T00:49:04;99138.00;;;8.90
11321;BMP180;5715;48.234;14.320;2024-02-14T00:51:52;99146.00;;;8.80
11321;BMP180;5715;48.234;14.320;2024-02-14T00:54:40;99141.00;;;8.70
11321;BMP180;5715;48.234;14.320;2024-02-14T00:57:27;99145.00;;;8.80
11321;BMP180;5715;48.234;14.320;2024-02-14T01:00:16;99149.00;;;8.70
11321;BMP180;5715;48.234;14.320;2024-02-14T01:03:06;99147.00;;;8.70
11321;BMP180;5715;48.234;14.320;2024-02-14T01:05:55;99146.00;;;8.60
11321;BMP180;5715;48.234;14.320;2024-02-14T01:08:42;99149.00;;;8.70
11321;BMP180;5715;48.234;14.320;2024-02-14T01:11:30;99153.00;;;8.60
11321;BMP180;5715;48.234;14.320;2024-02-14T01:14:18;99147.00;;;8.60
11321;BMP180;5715;48.234;14.320;2024-02-14T01:17:06;99149.00;;;8.60
11321;BMP180;5715;48.234;14.320;2024-02-14T01:19:53;99147.00;;;8.60
11321;BMP180;5715;48.234;14.320;2024-02-14T01:22:41;99147.00;;;8.60
11321;BMP180;5715;48.234;14.320;2024-02-14T01:25:29;99140.00;;;8.50
11321;BMP180;5715;48.234;14.320;2024-02-14T01:28:16;99141.00;;;8.50
11321;BMP180;5715;48.234;14.320;2024-02-14T01:31:04;99139.00;;;8.40
11321;BMP180;5715;48.234;14.320;2024-02-14T01:33:53;99129.00;;;8.50
11321;BMP180;5715;48.234;14.320;2024-02-14T01:36:40;99137.00;;;8.50
11321;BMP180;5715;48.234;14.320;2024-02-14T01:39:28;99132.00;;;8.50
11321;BMP180;5715;48.234;14.320;2024-02-14T01:42:16;99137.00;;;8.40
11321;BMP180;5715;48.234;14.320;2024-02-14T01:45:04;99129.00;;;8.40
11321;BMP180;5715;48.234;14.320;2024-02-14T01:47:52;99138.00;;;8.30
11321;BMP180;5715;48.234;14.320;2024-02-14T01:50:41;99145.00;;;8.30
11321;BMP180;5715;48.234;14.320;2024-02-14T01:53:29;99134.00;;;8.30
11321;BMP180;5715;48.234;14.320;2024-02-14T01:56:18;99140.00;;;8.30
11321;BMP180;5715;48.234;14.320;2024-02-14T01:59:05;99137.00;;;8.20
11321;BMP180;5715;48.234;14.320;2024-02-14T02:01:54;99137.00;;;8.30
11321;BMP180;5715;48.234;14.320;2024-02-14T02:04:41;99138.00;;;8.30
11321;BMP180;5715;48.234;14.320;2024-02-14T02:07:32;99137.00;;;8.30
11321;BMP180;5715;48.234;14.320;2024-02-14T02:10:19;99137.00;;;8.30
11321;BMP180;5715;48.234;14.320;2024-02-14T02:13:10;99148.00;;;8.30
11321;BMP180;5715;48.234;14.320;2024-02-14T02:15:58;99142.00;;;8.30
11321;BMP180;5715;48.234;14.320;2024-02-14T02:18:48;99142.00;;;8.30
11321;BMP180;5715;48.234;14.320;2024-02-14T02:21:37;99133.00;;;8.50
11321;BMP180;5715;48.234;14.320;2024-02-14T02:24:25;99132.00;;;8.50
11321;BMP180;5715;48.234;14.320;2024-02-14T02:27:13;99135.00;;;8.40
11321;BMP180;5715;48.234;14.320;2024-02-14T02:30:07;99134.00;;;8.40
11321;BMP180;5715;48.234;14.320;2024-02-14T02:33:02;99143.00;;;8.40
11321;BMP180;5715;48.234;14.320;2024-02-14T02:35:51;99148.00;;;8.40
11321;BMP180;5715;48.234;14.320;2024-02-14T02:38:39;99150.00;;;8.40
11321;BMP180;5715;48.234;14.320;2024-02-14T02:41:27;99144.00;;;8.40
11321;BMP180;5715;48.234;14.320;2024-02-14T02:44:14;99144.00;;;8.40
11321;BMP180;5715;48.234;14.320;2024-02-14T02:47:02;99146.00;;;8.40
11321;BMP180;5715;48.234;14.320;2024-02-14T02:49:50;99153.00;;;8.30
11321;BMP180;5715;48.234;14.320;2024-02-14T02:52:39;99150.00;;;8.30
11321;BMP180;5715;48.234;14.320;2024-02-14T02:55:29;99138.00;;;8.30
11321;BMP180;5715;48.234;14.320;2024-02-14T02:58:16;99153.00;;;8.30
11321;BMP180;5715;48.234;14.320;2024-02-14T03:01:08;99143.00;;;8.30
11321;BMP180;5715;48.234;14.320;2024-02-14T03:03:59;99140.00;;;8.20
11321;BMP180;5715;48.234;14.320;2024-02-14T03:06:47;99153.00;;;8.30
11321;BMP180;5715;48.234;14.320;2024-02-14T03:09:35;99151.00;;;8.30
11321;BMP180;5715;48.234;14.320;2024-02-14T03:12:23;99157.00;;;8.30
11321;BMP180;5715;48.234;14.320;2024-02-14T03:15:11;99157.00;;;8.20
11321;BMP180;5715;48.234;14.320;2024-02-14T03:17:59;99165.00;;;8.40
11321;BMP180;5715;48.234;14.320;2024-02-14T03:20:46;99168.00;;;8.40
11321;BMP180;5715;48.234;14.320;2024-02-14T03:23:34;99154.00;;;8.40
11321;BMP180;5715;48.234;14.320;2024-02-14T03:26:22;99158.00;;;8.50
11321;BMP180;5715;48.234;14.320;2024-02-14T03:29:10;99164.00;;;8.50
11321;BMP180;5715;48.234;14.320;2024-02-14T03:31:59;99166.00;;;8.50
11321;BMP180;5715;48.234;14.320;2024-02-14T03:34:51;99167.00;;;8.60
11321;BMP180;5715;48.234;14.320;2024-02-14T03:37:42;99163.00;;;8.50
11321;BMP180;5715;48.234;14.320;2024-02-14T03:40:31;99161.00;;;8.50
11321;BMP180;5715;48.234;14.320;2024-02-14T03:43:19;99158.00;;;8.50
11321;BMP180;5715;48.234;14.320;2024-02-14T03:46:07;99159.00;;;8.60
11321;BMP180;5715;48.234;14.320;2024-02-14T03:48:55;99158.00;;;8.70
11321;BMP180;5715;48.234;14.320;2024-02-14T03:51:43;99166.00;;;8.70
11321;BMP180;5715;48.234;14.320;2024-02-14T03:54:30;99164.00;;;8.70
11321;BMP180;5715;48.234;14.320;2024-02-14T03:57:18;99169.00;;;8.80
11321;BMP180;5715;48.234;14.320;2024-02-14T04:00:06;99167.00;;;8.80
11321;BMP180;5715;48.234;14.320;2024-02-14T04:02:58;99169.00;;;8.70
11321;BMP180;5715;48.234;14.320;2024-02-14T04:05:46;99168.00;;;8.80
11321;BMP180;5715;48.234;14.320;2024-02-14T04:08:35;99168.00;;;8.70
11321;BMP180;5715;48.234;14.320;2024-02-14T04:11:23;99163.00;;;8.80
11321;BMP180;5715;48.234;14.320;2024-02-14T04:14:10;99168.00;;;8.80
11321;BMP180;5715;48.234;14.320;2024-02-14T04:16:58;99159.00;;;8.70
11321;BMP180;5715;48.234;14.320;2024-02-14T04:19:46;99156.00;;;8.70
11321;BMP180;5715;48.234;14.320;2024-02-14T04:22:33;99158.00;;;8.80
11321;BMP180;5715;48.234;14.320;2024-02-14T04:25:21;99161.00;;;8.60
11321;BMP180;5715;48.234;14.320;2024-02-14T04:28:10;99173.00;;;8.50
11321;BMP180;5715;48.234;14.320;2024-02-14T04:30:59;99174.00;;;8.50
11321;BMP180;5715;48.234;14.320;2024-02-14T04:33:46;99176.00;;;8.50
11321;BMP180;5715;48.234;14.320;2024-02-14T04:36:40;99178.00;;;8.50
11321;BMP180;5715;48.234;14.320;2024-02-14T04:39:28;99173.00;;;8.40
11321;BMP180;5715;48.234;14.320;2024-02-14T04:42:15;99177.00;;;8.30
11321;BMP180;5715;48.234;14.320;2024-02-14T04:45:03;99184.00;;;8.10
11321;BMP180;5715;48.234;14.320;2024-02-14T04:47:51;99183.00;;;8.10
11321;BMP180;5715;48.234;14.320;2024-02-14T04:50:39;99177.00;;;8.20
11321;BMP180;5715;48.234;14.320;2024-02-14T04:53:27;99187.00;;;8.00
11321;BMP180;5715;48.234;14.320;2024-02-14T04:56:15;99179.00;;;8.10
11321;BMP180;5715;48.234;14.320;2024-02-14T04:59:02;99177.00;;;8.00
11321;BMP180;5715;48.234;14.320;2024-02-14T05:01:50;99172.00;;;8.10
11321;BMP180;5715;48.234;14.320;2024-02-14T05:04:39;99173.00;;;8.20
11321;BMP180;5715;48.234;14.320;2024-02-14T05:07:26;99163.00;;;8.20
11321;BMP180;5715;48.234;14.320;2024-02-14T05:10:14;99170.00;;;8.10
11321;BMP180;5715;48.234;14.320;2024-02-14T05:13:02;99175.00;;;8.10
11321;BMP180;5715;48.234;14.320;2024-02-14T05:15:49;99174.00;;;8.20
11321;BMP180;5715;48.234;14.320;2024-02-14T05:18:38;99169.00;;;8.20
11321;BMP180;5715;48.234;14.320;2024-02-14T05:21:26;99164.00;;;8.20
11321;BMP180;5715;48.234;14.320;2024-02-14T05:24:14;99165.00;;;8.20
11321;BMP180;5715;48.234;14.320;2024-02-14T05:27:04;99155.00;;;8.30
11321;BMP180;5715;48.234;14.320;2024-02-14T05:29:53;99156.00;;;8.20
11321;BMP180;5715;48.234;14.320;2024-02-14T05:32:40;99154.00;;;8.20
11321;BMP180;5715;48.234;14.320;2024-02-14T05:35:28;99156.00;;;8.20
11321;BMP180;5715;48.234;14.320;2024-02-14T05:38:16;99173.00;;;8.10
11321;BMP180;5715;48.234;14.320;2024-02-14T05:41:06;99169.00;;;8.10
11321;BMP180;5715;48.234;14.320;2024-02-14T05:43:55;99166.00;;;7.90
11321;BMP180;5715;48.234;14.320;2024-02-14T05:46:42;99165.00;;;8.00
11321;BMP180;5715;48.234;14.320;2024-02-14T05:49:30;99174.00;;;8.00
11321;BMP180;5715;48.234;14.320;2024-02-14T05:52:17;99166.00;;;8.00
11321;BMP180;5715;48.234;14.320;2024-02-14T05:55:06;99174.00;;;8.00
11321;BMP180;5715;48.234;14.320;2024-02-14T05:57:55;99168.00;;;7.90
11321;BMP180;5715;48.234;14.320;2024-02-14T06:00:44;99175.00;;;7.90
11321;BMP180;5715;48.234;14.320;2024-02-14T06:03:32;99176.00;;;7.90
11321;BMP180;5715;48.234;14.320;2024-02-14T06:06:20;99178.00;;;8.00
11321;BMP180;5715;48.234;14.320;2024-02-14T06:09:08;99183.00;;;8.00
11321;BMP180;5715;48.234;14.320;2024-02-14T06:11:59;99195.00;;;8.10
11321;BMP180;5715;48.234;14.320;2024-02-14T06:14:49;99202.00;;;8.00
11321;BMP180;5715;48.234;14.320;2024-02-14T06:17:37;99198.00;;;8.00
11321;BMP180;5715;48.234;14.320;2024-02-14T06:20:26;99203.00;;;8.20
11321;BMP180;5715;48.234;14.320;2024-02-14T06:23:14;99201.00;;;8.30
11321;BMP180;5715;48.234;14.320;2024-02-14T06:26:01;99201.00;;;8.40
11321;BMP180;5715;48.234;14.320;2024-02-14T06:28:49;99200.00;;;8.30
11321;BMP180;5715;48.234;14.320;2024-02-14T06:31:41;99204.00;;;8.30
11321;BMP180;5715;48.234;14.320;2024-02-14T06:34:29;99217.00;;;8.50
11321;BMP180;5715;48.234;14.320;2024-02-14T06:37:17;99222.00;;;8.50
11321;BMP180;5715;48.234;14.320;2024-02-14T06:40:06;99220.00;;;8.60
11321;BMP180;5715;48.234;14.320;2024-02-14T06:42:56;99230.00;;;8.80
11321;BMP180;5715;48.234;14.320;2024-02-14T06:45:44;99234.00;;;9.00
11321;BMP180;5715;48.234;14.320;2024-02-14T06:48:32;99231.00;;;9.40
11321;BMP180;5715;48.234;14.320;2024-02-14T06:51:20;99235.00;;;9.40
11321;BMP180;5715;48.234;14.320;2024-02-14T06:54:08;99237.00;;;9.60
11321;BMP180;5715;48.234;14.320;2024-02-14T06:56:56;99236.00;;;9.70
11321;BMP180;5715;48.234;14.320;2024-02-14T06:59:44;99238.00;;;9.80
11321;BMP180;5715;48.234;14.320;2024-02-14T07:02:32;99243.00;;;10.00
11321;BMP180;5715;48.234;14.320;2024-02-14T07:05:19;99238.00;;;10.10
11321;BMP180;5715;48.234;14.320;2024-02-14T07:08:07;99244.00;;;10.20
11321;BMP180;5715;48.234;14.320;2024-02-14T07:10:55;99234.00;;;10.20
11321;BMP180;5715;48.234;14.320;2024-02-14T07:13:44;99231.00;;;10.30
11321;BMP180;5715;48.234;14.320;2024-02-14T07:16:31;99233.00;;;10.50
11321;BMP180;5715;48.234;14.320;2024-02-14T07:19:19;99233.00;;;10.70
11321;BMP180;5715;48.234;14.320;2024-02-14T07:22:07;99230.00;;;10.90
11321;BMP180;5715;48.234;14.320;2024-02-14T07:24:57;99232.00;;;11.00
11321;BMP180;5715;48.234;14.320;2024-02-14T07:27:45;99236.00;;;11.00
11321;BMP180;5715;48.234;14.320;2024-02-14T07:30:33;99248.00;;;11.40
11321;BMP180;5715;48.234;14.320;2024-02-14T07:33:21;99245.00;;;11.20
11321;BMP180;5715;48.234;14.320;2024-02-14T07:36:09;99242.00;;;11.40
11321;BMP180;5715;48.234;14.320;2024-02-14T07:38:57;99248.00;;;11.60
11321;BMP180;5715;48.234;14.320;2024-02-14T07:41:44;99250.00;;;11.40
11321;BMP180;5715;48.234;14.320;2024-02-14T07:44:32;99250.00;;;11.50
11321;BMP180;5715;48.234;14.320;2024-02-14T07:47:20;99242.00;;;11.70
11321;BMP180;5715;48.234;14.320;2024-02-14T07:50:08;99251.00;;;11.90
11321;BMP180;5715;48.234;14.320;2024-02-14T07:52:56;99247.00;;;11.90
11321;BMP180;5715;48.234;14.320;2024-02-14T07:55:44;99250.00;;;12.00
11321;BMP180;5715;48.234;14.320;2024-02-14T07:58:31;99246.00;;;12.20
11321;BMP180;5715;48.234;14.320;2024-02-14T08:01:19;99251.00;;;12.30
11321;BMP180;5715;48.234;14.320;2024-02-14T08:04:07;99253.00;;;12.50
11321;BMP180;5715;48.234;14.320;2024-02-14T08:06:54;99258.00;;;12.50
11321;BMP180;5715;48.234;14.320;2024-02-14T08:09:42;99258.00;;;12.60
11321;BMP180;5715;48.234;14.320;2024-02-14T08:12:30;99262.00;;;12.80
11321;BMP180;5715;48.234;14.320;2024-02-14T08:15:19;99263.00;;;12.80
11321;BMP180;5715;48.234;14.320;2024-02-14T08:18:07;99268.00;;;13.00
11321;BMP180;5715;48.234;14.320;2024-02-14T08:20:56;99265.00;;;13.20
11321;BMP180;5715;48.234;14.320;2024-02-14T08:23:44;99265.00;;;13.20
11321;BMP180;5715;48.234;14.320;2024-02-14T08:26:32;99259.00;;;13.10
11321;BMP180;5715;48.234;14.320;2024-02-14T08:29:20;99262.00;;;13.30
11321;BMP180;5715;48.234;14.320;2024-02-14T08:32:08;99260.00;;;13.20
11321;BMP180;5715;48.234;14.320;2024-02-14T08:34:55;99255.00;;;13.10
11321;BMP180;5715;48.234;14.320;2024-02-14T08:37:43;99265.00;;;13.40
11321;BMP180;5715;48.234;14.320;2024-02-14T08:40:31;99270.00;;;13.30
11321;BMP180;5715;48.234;14.320;2024-02-14T08:43:18;99266.00;;;13.50
11321;BMP180;5715;48.234;14.320;2024-02-14T08:46:10;99269.00;;;13.70
11321;BMP180;5715;48.234;14.320;2024-02-14T08:49:02;99267.00;;;14.00
11321;BMP180;5715;48.234;14.320;2024-02-14T08:51:55;99269.00;;;14.20
11321;BMP180;5715;48.234;14.320;2024-02-14T08:54:42;99265.00;;;14.20
11321;BMP180;5715;48.234;14.320;2024-02-14T08:57:30;99261.00;;;14.40
11321;BMP180;5715;48.234;14.320;2024-02-14T09:00:19;99257.00;;;14.50
11321;BMP180;5715;48.234;14.320;2024-02-14T09:03:08;99253.00;;;14.60
11321;BMP180;5715;48.234;14.320;2024-02-14T09:05:56;99255.00;;;14.90
11321;BMP180;5715;48.234;14.320;2024-02-14T09:08:44;99258.00;;;15.20
11321;BMP180;5715;48.234;14.320;2024-02-14T09:11:32;99252.00;;;14.60
11321;BMP180;5715;48.234;14.320;2024-02-14T09:14:20;99243.00;;;15.50
11321;BMP180;5715;48.234;14.320;2024-02-14T09:17:07;99244.00;;;15.70
11321;BMP180;5715;48.234;14.320;2024-02-14T09:19:55;99241.00;;;15.90
11321;BMP180;5715;48.234;14.320;2024-02-14T09:22:43;99246.00;;;16.10
11321;BMP180;5715;48.234;14.320;2024-02-14T09:25:30;99245.00;;;15.90
11321;BMP180;5715;48.234;14.320;2024-02-14T09:28:19;99244.00;;;16.20
11321;BMP180;5715;48.234;14.320;2024-02-14T09:31:07;99253.00;;;16.20
11321;BMP180;5715;48.234;14.320;2024-02-14T09:33:57;99255.00;;;16.10
11321;BMP180;5715;48.234;14.320;2024-02-14T09:36:48;99255.00;;;16.00
11321;BMP180;5715;48.234;14.320;2024-02-14T09:39:40;99258.00;;;16.10
11321;BMP180;5715;48.234;14.320;2024-02-14T09:42:47;99263.00;;;15.80
11321;BMP180;5715;48.234;14.320;2024-02-14T09:45:39;99248.00;;;15.90
11321;BMP180;5715;48.234;14.320;2024-02-14T09:48:30;99249.00;;;16.30
11321;BMP180;5715;48.234;14.320;2024-02-14T09:51:18;99256.00;;;16.50
11321;BMP180;5715;48.234;14.320;2024-02-14T09:54:07;99258.00;;;16.20
11321;BMP180;5715;48.234;14.320;2024-02-14T09:56:57;99256.00;;;16.50
11321;BMP180;5715;48.234;14.320;2024-02-14T09:59:46;99253.00;;;16.60
11321;BMP180;5715;48.234;14.320;2024-02-14T10:02:35;99263.00;;;16.80
11321;BMP180;5715;48.234;14.320;2024-02-14T10:05:23;99252.00;;;16.90
11321;BMP180;5715;48.234;14.320;2024-02-14T10:08:11;99253.00;;;16.90
11321;BMP180;5715;48.234;14.320;2024-02-14T10:10:58;99251.00;;;17.10
11321;BMP180;5715;48.234;14.320;2024-02-14T10:13:47;99266.00;;;17.00
11321;BMP180;5715;48.234;14.320;2024-02-14T10:16:37;99257.00;;;17.10
11321;BMP180;5715;48.234;14.320;2024-02-14T10:19:25;99256.00;;;17.20
11321;BMP180;5715;48.234;14.320;2024-02-14T10:22:15;99264.00;;;17.40
11321;BMP180;5715;48.234;14.320;2024-02-14T10:25:04;99260.00;;;17.40
11321;BMP180;5715;48.234;14.320;2024-02-14T10:27:56;99251.00;;;17.90
11321;BMP180;5715;48.234;14.320;2024-02-14T10:30:46;99259.00;;;16.90
11321;BMP180;5715;48.234;14.320;2024-02-14T10:33:33;99262.00;;;17.70
11321;BMP180;5715;48.234;14.320;2024-02-14T10:36:22;99264.00;;;17.90
11321;BMP180;5715;48.234;14.320;2024-02-14T10:39:12;99258.00;;;18.10
11321;BMP180;5715;48.234;14.320;2024-02-14T10:42:03;99251.00;;;18.30
11321;BMP180;5715;48.234;14.320;2024-02-14T10:44:51;99256.00;;;18.10
11321;BMP180;5715;48.234;14.320;2024-02-14T10:47:43;99253.00;;;18.00
11321;BMP180;5715;48.234;14.320;2024-02-14T10:50:34;99259.00;;;17.60
11321;BMP180;5715;48.234;14.320;2024-02-14T10:53:29;99253.00;;;17.70
11321;BMP180;5715;48.234;14.320;2024-02-14T10:56:19;99239.00;;;17.40
11321;BMP180;5715;48.234;14.320;2024-02-14T10:59:09;99235.00;;;17.40
11321;BMP180;5715;48.234;14.320;2024-02-14T11:01:59;99239.00;;;17.70
11321;BMP180;5715;48.234;14.320;2024-02-14T11:04:48;99234.00;;;17.40
11321;BMP180;5715;48.234;14.320;2024-02-14T11:07:45;99232.00;;;17.80
11321;BMP180;5715;48.234;14.320;2024-02-14T11:10:37;99237.00;;;17.80
11321;BMP180;5715;48.234;14.320;2024-02-14T11:13:28;99234.00;;;17.80
11321;BMP180;5715;48.234;14.320;2024-02-14T11:16:16;99235.00;;;17.40
11321;BMP180;5715;48.234;14.320;2024-02-14T11:19:11;99229.00;;;17.50
11321;BMP180;5715;48.234;14.320;2024-02-14T11:22:17;99219.00;;;17.50
11321;BMP180;5715;48.234;14.320;2024-02-14T11:25:15;99212.00;;;17.60
11321;BMP180;5715;48.234;14.320;2024-02-14T11:28:23;99208.00;;;17.80
11321;BMP180;5715;48.234;14.320;2024-02-14T11:31:17;99209.00;;;17.90
11321;BMP180;5715;48.234;14.320;2024-02-14T11:34:05;99218.00;;;17.80
11321;BMP180;5715;48.234;14.320;2024-02-14T11:36:53;99220.00;;;17.80
11321;BMP180;5715;48.234;14.320;2024-02-14T11:39:41;99212.00;;;17.70
11321;BMP180;5715;48.234;14.320;2024-02-14T11:42:29;99214.00;;;18.00
11321;BMP180;5715;48.234;14.320;2024-02-14T11:45:16;99210.00;;;17.70
11321;BMP180;5715;48.234;14.320;2024-02-14T11:48:05;99205.00;;;17.50
11321;BMP180;5715;48.234;14.320;2024-02-14T11:50:53;99202.00;;;17.40
11321;BMP180;5715;48.234;14.320;2024-02-14T11:53:43;99213.00;;;17.60
11321;BMP180;5715;48.234;14.320;2024-02-14T11:56:36;99211.00;;;17.80
11321;BMP180;5715;48.234;14.320;2024-02-14T11:59:25;99211.00;;;18.10
11321;BMP180;5715;48.234;14.320;2024-02-14T12:02:14;99206.00;;;18.20
11321;BMP180;5715;48.234;14.320;2024-02-14T12:05:02;99193.00;;;18.60
11321;BMP180;5715;48.234;14.320;2024-02-14T12:07:52;99185.00;;;18.70
11321;BMP180;5715;48.234;14.320;2024-02-14T12:10:43;99193.00;;;18.70
11321;BMP180;5715;48.234;14.320;2024-02-14T12:13:34;99190.00;;;18.90
11321;BMP180;5715;48.234;14.320;2024-02-14T12:16:25;99194.00;;;18.90
11321;BMP180;5715;48.234;14.320;2024-02-14T12:19:16;99185.00;;;18.80
11321;BMP180;5715;48.234;14.320;2024-02-14T12:22:10;99191.00;;;18.80
11321;BMP180;5715;48.234;14.320;2024-02-14T12:25:08;99191.00;;;19.20
11321;BMP180;5715;48.234;14.320;2024-02-14T12:28:01;99186.00;;;19.30
11321;BMP180;5715;48.234;14.320;2024-02-14T12:30:51;99178.00;;;19.70
11321;BMP180;5715;48.234;14.320;2024-02-14T12:33:44;99177.00;;;19.80
11321;BMP180;5715;48.234;14.320;2024-02-14T12:36:34;99166.00;;;19.60
11321;BMP180;5715;48.234;14.320;2024-02-14T12:39:22;99167.00;;;19.70
11321;BMP180;5715;48.234;14.320;2024-02-14T12:42:10;99159.00;;;19.70
11321;BMP180;5715;48.234;14.320;2024-02-14T12:44:58;99166.00;;;19.30
11321;BMP180;5715;48.234;14.320;2024-02-14T12:47:46;99167.00;;;19.30
11321;BMP180;5715;48.234;14.320;2024-02-14T12:50:35;99170.00;;;19.50
11321;BMP180;5715;48.234;14.320;2024-02-14T12:53:25;99171.00;;;19.60
11321;BMP180;5715;48.234;14.320;2024-02-14T12:56:13;99166.00;;;19.50
11321;BMP180;5715;48.234;14.320;2024-02-14T12:59:00;99159.00;;;19.40
11321;BMP180;5715;48.234;14.320;2024-02-14T13:01:48;99156.00;;;19.70
11321;BMP180;5715;48.234;14.320;2024-02-14T13:04:36;99153.00;;;19.90
11321;BMP180;5715;48.234;14.320;2024-02-14T13:07:24;99154.00;;;20.10
11321;BMP180;5715;48.234;14.320;2024-02-14T13:10:12;99157.00;;;20.00
11321;BMP180;5715;48.234;14.320;2024-02-14T13:12:59;99155.00;;;20.30
11321;BMP180;5715;48.234;14.320;2024-02-14T13:15:47;99150.00;;;20.30
11321;BMP180;5715;48.234;14.320;2024-02-14T13:18:35;99154.00;;;20.60
11321;BMP180;5715;48.234;14.320;2024-02-14T13:21:24;99146.00;;;20.50
11321;BMP180;5715;48.234;14.320;2024-02-14T13:24:12;99146.00;;;20.50
11321;BMP180;5715;48.234;14.320;2024-02-14T13:27:03;99136.00;;;20.60
11321;BMP180;5715;48.234;14.320;2024-02-14T13:29:51;99138.00;;;20.20
11321;BMP180;5715;48.234;14.320;2024-02-14T13:32:39;99134.00;;;20.50
11321;BMP180;5715;48.234;14.320;2024-02-14T13:35:27;99142.00;;;20.20
11321;BMP180;5715;48.234;14.320;2024-02-14T13:38:15;99143.00;;;20.60
11321;BMP180;5715;48.234;14.320;2024-02-14T13:41:02;99149.00;;;20.60
11321;BMP180;5715;48.234;14.320;2024-02-14T13:43:50;99139.00;;;20.70
11321;BMP180;5715;48.234;14.320;2024-02-14T13:46:38;99146.00;;;20.40
11321;BMP180;5715;48.234;14.320;2024-02-14T13:49:30;99135.00;;;20.70
11321;BMP180;5715;48.234;14.320;2024-02-14T13:52:19;99135.00;;;21.00
11321;BMP180;5715;48.234;14.320;2024-02-14T13:55:08;99130.00;;;21.10
11321;BMP180;5715;48.234;14.320;2024-02-14T13:57:56;99134.00;;;21.00
11321;BMP180;5715;48.234;14.320;2024-02-14T14:00:43;99134.00;;;21.20
11321;BMP180;5715;48.234;14.320;2024-02-14T14:03:31;99138.00;;;20.90
11321;BMP180;5715;48.234;14.320;2024-02-14T14:06:22;99137.00;;;20.80
11321;BMP180;5715;48.234;14.320;2024-02-14T14:09:13;99138.00;;;20.80
11321;BMP180;5715;48.234;14.320;2024-02-14T14:12:00;99133.00;;;20.80
11321;BMP180;5715;48.234;14.320;2024-02-14T14:14:48;99128.00;;;21.00
11321;BMP180;5715;48.234;14.320;2024-02-14T14:17:36;99136.00;;;21.00
11321;BMP180;5715;48.234;14.320;2024-02-14T14:20:24;99120.00;;;20.70
11321;BMP180;5715;48.234;14.320;2024-02-14T14:23:11;99115.00;;;20.80
11321;BMP180;5715;48.234;14.320;2024-02-14T14:26:00;99123.00;;;20.80
11321;BMP180;5715;48.234;14.320;2024-02-14T14:28:48;99122.00;;;20.80
11321;BMP180;5715;48.234;14.320;2024-02-14T14:31:36;99120.00;;;20.60
11321;BMP180;5715;48.234;14.320;2024-02-14T14:34:23;99122.00;;;20.90
11321;BMP180;5715;48.234;14.320;2024-02-14T14:37:11;99127.00;;;21.00
11321;BMP180;5715;48.234;14.320;2024-02-14T14:39:59;99125.00;;;21.00
11321;BMP180;5715;48.234;14.320;2024-02-14T14:42:54;99122.00;;;20.80
11321;BMP180;5715;48.234;14.320;2024-02-14T14:45:42;99124.00;;;20.90
11321;BMP180;5715;48.234;14.320;2024-02-14T14:48:29;99124.00;;;20.80
11321;BMP180;5715;48.234;14.320;2024-02-14T14:51:17;99122.00;;;20.70
11321;BMP180;5715;48.234;14.320;2024-02-14T14:54:05;99122.00;;;20.60
11321;BMP180;5715;48.234;14.320;2024-02-14T14:56:54;99115.00;;;20.70
11321;BMP180;5715;48.234;14.320;2024-02-14T14:59:42;99112.00;;;20.70
11321;BMP180;5715;48.234;14.320;2024-02-14T15:02:31;99109.00;;;20.70
11321;BMP180;5715;48.234;14.320;2024-02-14T15:05:18;99116.00;;;20.80
11321;BMP180;5715;48.234;14.320;2024-02-14T15:08:07;99126.00;;;20.70
11321;BMP180;5715;48.234;14.320;2024-02-14T15:10:55;99135.00;;;20.50
11321;BMP180;5715;48.234;14.320;2024-02-14T15:13:45;99128.00;;;20.40
11321;BMP180;5715;48.234;14.320;2024-02-14T15:16:33;99128.00;;;20.20
11321;BMP180;5715;48.234;14.320;2024-02-14T15:19:21;99120.00;;;20.20
11321;BMP180;5715;48.234;14.320;2024-02-14T15:22:11;99125.00;;;20.10
11321;BMP180;5715;48.234;14.320;2024-02-14T15:24:59;99124.00;;;20.10
11321;BMP180;5715;48.234;14.320;2024-02-14T15:27:46;99109.00;;;20.00
11321;BMP180;5715;48.234;14.320;2024-02-14T15:30:41;99122.00;;;19.90
11321;BMP180;5715;48.234;14.320;2024-02-14T15:33:48;99108.00;;;19.70
11321;BMP180;5715;48.234;14.320;2024-02-14T15:36:36;99110.00;;;19.60
11321;BMP180;5715;48.234;14.320;2024-02-14T15:39:24;99107.00;;;19.40
11321;BMP180;5715;48.234;14.320;2024-02-14T15:42:11;99104.00;;;19.30
11321;BMP180;5715;48.234;14.320;2024-02-14T15:44:59;99110.00;;;19.20
11321;BMP180;5715;48.234;14.320;2024-02-14T15:47:47;99126.00;;;19.20
11321;BMP180;5715;48.234;14.320;2024-02-14T15:50:36;99122.00;;;19.10
11321;BMP180;5715;48.234;14.320;2024-02-14T15:53:24;99116.00;;;19.00
11321;BMP180;5715;48.234;14.320;2024-02-14T15:56:12;99109.00;;;19.00
11321;BMP180;5715;48.234;14.320;2024-02-14T15:59:01;99110.00;;;18.90
11321;BMP180;5715;48.234;14.320;2024-02-14T16:01:50;99105.00;;;18.90
11321;BMP180;5715;48.234;14.320;2024-02-14T16:04:37;99103.00;;;18.90
11321;BMP180;5715;48.234;14.320;2024-02-14T16:07:26;99100.00;;;18.90
11321;BMP180;5715;48.234;14.320;2024-02-14T16:10:14;99104.00;;;18.70
11321;BMP180;5715;48.234;14.320;2024-02-14T16:13:02;99110.00;;;18.70
11321;BMP180;5715;48.234;14.320;2024-02-14T16:15:52;99106.00;;;18.60
11321;BMP180;5715;48.234;14.320;2024-02-14T16:18:41;99115.00;;;18.60